createdAt,value
2019-03-31T00:00:22.726Z,7.78
2019-03-31T00:00:27.024Z,7.78
2019-03-31T00:00:31.219Z,7.78
2019-03-31T00:00:35.520Z,7.77
2019-03-31T00:00:39.829Z,7.77
2019-03-31T00:00:44.026Z,7.76
2019-03-31T00:00:48.323Z,7.76
2019-03-31T00:00:52.626Z,7.76
2019-03-31T00:01:11.592Z,7.75
2019-03-31T00:01:15.892Z,7.74
2019-03-31T00:01:20.196Z,7.75
2019-03-31T00:01:24.490Z,7.74
2019-03-31T00:01:28.783Z,7.74
2019-03-31T00:01:33.075Z,7.73
2019-03-31T00:01:37.359Z,7.74
2019-03-31T00:01:41.657Z,7.73
2019-03-31T00:01:45.854Z,7.72
2019-03-31T00:01:50.157Z,7.72
2019-03-31T00:01:54.455Z,7.71
2019-03-31T00:01:58.792Z,7.71
2019-03-31T00:02:03.085Z,7.71
2019-03-31T00:02:07.385Z,7.7
2019-03-31T00:02:11.686Z,7.69
2019-03-31T00:02:15.786Z,7.69
2019-03-31T00:02:19.984Z,7.69
2019-03-31T00:02:24.279Z,7.69
2019-03-31T00:02:28.520Z,7.69
2019-03-31T00:02:32.818Z,7.68
2019-03-31T00:02:37.189Z,7.67
2019-03-31T00:02:41.380Z,7.68
2019-03-31T00:02:45.673Z,7.68
2019-03-31T00:02:49.870Z,7.67
2019-03-31T00:02:54.165Z,7.67
2019-03-31T00:02:58.483Z,7.67
2019-03-31T00:03:02.706Z,7.66
2019-03-31T00:03:07.009Z,7.66
2019-03-31T00:03:11.401Z,7.67
2019-03-31T00:03:15.762Z,7.67
2019-03-31T00:03:19.960Z,7.66
2019-03-31T00:03:24.326Z,7.66
2019-03-31T00:03:28.586Z,7.66
2019-03-31T00:03:32.884Z,7.66
2019-03-31T00:03:37.179Z,7.65
2019-03-31T00:03:41.469Z,7.64
2019-03-31T00:03:45.759Z,7.64
2019-03-31T00:03:50.054Z,7.64
2019-03-31T00:03:54.350Z,7.63
2019-03-31T00:03:58.554Z,7.63
2019-03-31T00:04:02.872Z,7.63
2019-03-31T00:04:07.166Z,7.63
2019-03-31T00:04:11.455Z,7.62
2019-03-31T00:04:15.749Z,7.61
2019-03-31T00:04:19.940Z,7.61
2019-03-31T00:04:24.244Z,7.61
2019-03-31T00:04:28.537Z,7.61
2019-03-31T00:04:32.746Z,7.61
2019-03-31T00:04:37.073Z,7.6
2019-03-31T00:04:41.367Z,7.6
2019-03-31T00:04:45.660Z,7.6
2019-03-31T00:04:49.949Z,7.6
2019-03-31T00:04:54.248Z,7.6
2019-03-31T00:04:58.538Z,7.59
2019-03-31T00:05:02.915Z,7.58
2019-03-31T00:05:07.255Z,7.58
2019-03-31T00:05:11.477Z,7.58
2019-03-31T00:05:15.684Z,7.58
2019-03-31T00:05:19.882Z,7.57
2019-03-31T00:05:24.072Z,7.57
2019-03-31T00:05:28.268Z,7.56
2019-03-31T00:05:32.555Z,7.57
2019-03-31T00:05:40.091Z,7.56
2019-03-31T00:05:44.290Z,7.55
2019-03-31T00:05:48.587Z,7.55
2019-03-31T00:05:52.894Z,7.55
2019-03-31T00:05:57.186Z,7.55
2019-03-31T00:06:01.500Z,7.55
2019-03-31T00:06:05.840Z,7.56
2019-03-31T00:06:10.148Z,7.55
2019-03-31T00:06:14.433Z,7.54
2019-03-31T00:06:18.724Z,7.54
2019-03-31T00:06:22.942Z,7.54
2019-03-31T00:06:27.260Z,7.54
2019-03-31T00:06:31.457Z,7.54
2019-03-31T00:06:35.750Z,7.53
2019-03-31T00:06:40.037Z,7.53
2019-03-31T00:06:44.333Z,7.54
2019-03-31T00:06:48.540Z,7.52
2019-03-31T00:06:52.754Z,7.53
2019-03-31T00:06:56.953Z,7.52
2019-03-31T00:07:01.315Z,7.52
2019-03-31T00:07:05.614Z,7.52
2019-03-31T00:07:09.971Z,7.51
2019-03-31T00:07:14.184Z,7.51
2019-03-31T00:07:18.487Z,7.51
2019-03-31T00:07:22.678Z,7.51
2019-03-31T00:07:26.969Z,7.51
2019-03-31T00:07:31.256Z,7.51
2019-03-31T00:07:35.552Z,7.5
2019-03-31T00:07:39.846Z,7.51
2019-03-31T00:07:44.153Z,7.5
2019-03-31T00:07:48.440Z,7.5
2019-03-31T00:07:52.735Z,7.5
2019-03-31T00:07:57.023Z,7.5
2019-03-31T00:08:01.310Z,7.49
2019-03-31T00:08:05.618Z,7.49
2019-03-31T00:08:09.910Z,7.5
2019-03-31T00:08:14.237Z,7.49
2019-03-31T00:08:18.538Z,7.48
2019-03-31T00:08:22.825Z,7.48
2019-03-31T00:08:27.066Z,7.48
2019-03-31T00:08:31.365Z,7.48
2019-03-31T00:08:35.567Z,7.47
2019-03-31T00:08:39.852Z,7.48
2019-03-31T00:08:44.160Z,7.47
2019-03-31T00:08:48.449Z,7.48
2019-03-31T00:08:52.802Z,7.47
2019-03-31T00:08:57.116Z,7.47
2019-03-31T00:09:01.307Z,7.46
2019-03-31T00:09:05.719Z,7.47
2019-03-31T00:09:10.018Z,7.46
2019-03-31T00:09:14.206Z,7.45
2019-03-31T00:09:18.523Z,7.46
2019-03-31T00:09:22.838Z,7.46
2019-03-31T00:09:27.171Z,7.46
2019-03-31T00:09:31.478Z,7.45
2019-03-31T00:09:35.776Z,7.44
2019-03-31T00:09:39.968Z,7.45
2019-03-31T00:09:44.255Z,7.45
2019-03-31T00:09:48.549Z,7.45
2019-03-31T00:09:52.843Z,7.44
2019-03-31T00:09:57.032Z,7.45
2019-03-31T00:10:01.319Z,7.44
2019-03-31T00:10:05.555Z,7.45
2019-03-31T00:10:09.753Z,7.46
2019-03-31T00:10:13.983Z,7.44
2019-03-31T00:10:18.182Z,7.45
2019-03-31T00:10:22.479Z,7.45
2019-03-31T00:10:26.677Z,7.44
2019-03-31T00:10:30.876Z,7.43
2019-03-31T00:10:35.270Z,7.44
2019-03-31T00:10:39.522Z,7.44
2019-03-31T00:10:43.875Z,7.43
2019-03-31T00:10:48.162Z,7.42
2019-03-31T00:10:52.450Z,7.44
2019-03-31T00:10:56.738Z,7.43
2019-03-31T00:11:04.133Z,7.44
2019-03-31T00:11:08.340Z,7.43
2019-03-31T00:11:12.638Z,7.43
2019-03-31T00:11:16.840Z,7.43
2019-03-31T00:11:21.035Z,7.42
2019-03-31T00:11:25.342Z,7.42
2019-03-31T00:11:29.642Z,7.42
2019-03-31T00:11:33.945Z,7.42
2019-03-31T00:11:38.255Z,7.41
2019-03-31T00:11:42.552Z,7.42
2019-03-31T00:11:46.845Z,7.42
2019-03-31T00:11:51.143Z,7.42
2019-03-31T00:11:55.335Z,7.41
2019-03-31T00:11:59.646Z,7.42
2019-03-31T00:12:04.091Z,7.42
2019-03-31T00:12:08.381Z,7.41
2019-03-31T00:12:12.682Z,7.42
2019-03-31T00:12:16.981Z,7.41
2019-03-31T00:12:21.291Z,7.42
2019-03-31T00:12:25.604Z,7.41
2019-03-31T00:12:29.985Z,7.41
2019-03-31T00:12:34.306Z,7.41
2019-03-31T00:12:38.508Z,7.42
2019-03-31T00:12:42.803Z,7.41
2019-03-31T00:12:47.092Z,7.42
2019-03-31T00:12:51.401Z,7.41
2019-03-31T00:12:55.698Z,7.41
2019-03-31T00:12:59.999Z,7.41
2019-03-31T00:13:04.358Z,7.42
2019-03-31T00:13:08.739Z,7.41
2019-03-31T00:13:13.034Z,7.41
2019-03-31T00:13:17.325Z,7.4
2019-03-31T00:13:21.616Z,7.41
2019-03-31T00:13:25.807Z,7.41
2019-03-31T00:13:30.143Z,7.4
2019-03-31T00:13:34.461Z,7.41
2019-03-31T00:13:38.682Z,7.41
2019-03-31T00:13:42.970Z,7.41
2019-03-31T00:13:47.277Z,7.41
2019-03-31T00:13:51.564Z,7.4
2019-03-31T00:13:55.858Z,7.41
2019-03-31T00:14:00.054Z,7.4
2019-03-31T00:14:04.391Z,7.4
2019-03-31T00:14:08.679Z,7.42
2019-03-31T00:14:12.966Z,7.41
2019-03-31T00:14:17.250Z,7.41
2019-03-31T00:14:21.546Z,7.4
2019-03-31T00:14:25.837Z,7.41
2019-03-31T00:14:30.130Z,7.41
2019-03-31T00:14:34.427Z,7.4
2019-03-31T00:14:38.737Z,7.4
2019-03-31T00:14:43.031Z,7.4
2019-03-31T00:14:47.299Z,7.4
2019-03-31T00:14:51.590Z,7.4
2019-03-31T00:14:55.886Z,7.4
2019-03-31T00:15:00.354Z,7.4
2019-03-31T00:15:04.671Z,7.41
2019-03-31T00:15:08.870Z,7.39
2019-03-31T00:15:13.163Z,7.4
2019-03-31T00:15:17.468Z,7.4
2019-03-31T00:15:21.758Z,7.39
2019-03-31T00:15:26.060Z,7.41
2019-03-31T00:15:30.353Z,7.4
2019-03-31T00:15:34.668Z,7.4
2019-03-31T00:15:38.960Z,7.4
2019-03-31T00:15:43.253Z,7.4
2019-03-31T00:15:47.554Z,7.4
2019-03-31T00:15:51.746Z,7.4
2019-03-31T00:15:55.941Z,7.4
2019-03-31T00:16:00.231Z,7.4
2019-03-31T00:16:04.524Z,7.4
2019-03-31T00:16:08.815Z,7.39
2019-03-31T00:16:13.114Z,7.4
2019-03-31T00:16:17.406Z,7.4
2019-03-31T00:16:21.699Z,7.39
2019-03-31T00:16:25.986Z,7.39
2019-03-31T00:16:30.274Z,7.4
2019-03-31T00:16:34.471Z,7.39
2019-03-31T00:16:38.761Z,7.39
2019-03-31T00:16:42.964Z,7.4
2019-03-31T00:16:47.260Z,7.4
2019-03-31T00:16:54.655Z,7.39
2019-03-31T00:16:58.850Z,7.39
2019-03-31T00:17:03.356Z,7.39
2019-03-31T00:17:07.603Z,7.39
2019-03-31T00:17:11.800Z,7.39
2019-03-31T00:17:16.093Z,7.39
2019-03-31T00:17:20.318Z,7.39
2019-03-31T00:17:24.606Z,7.39
2019-03-31T00:17:28.798Z,7.39
2019-03-31T00:17:33.115Z,7.4
2019-03-31T00:17:37.410Z,7.39
2019-03-31T00:17:41.734Z,7.39
2019-03-31T00:17:46.023Z,7.39
2019-03-31T00:17:50.313Z,7.39
2019-03-31T00:17:54.503Z,7.39
2019-03-31T00:17:58.794Z,7.39
2019-03-31T00:18:03.083Z,7.38
2019-03-31T00:18:07.375Z,7.38
2019-03-31T00:18:11.587Z,7.39
2019-03-31T00:18:15.782Z,7.39
2019-03-31T00:18:19.971Z,7.38
2019-03-31T00:18:24.338Z,7.38
2019-03-31T00:18:28.635Z,7.39
2019-03-31T00:18:32.938Z,7.39
2019-03-31T00:18:37.228Z,7.38
2019-03-31T00:18:41.524Z,7.38
2019-03-31T00:18:45.835Z,7.38
2019-03-31T00:18:50.145Z,7.39
2019-03-31T00:18:54.436Z,7.39
2019-03-31T00:18:58.733Z,7.4
2019-03-31T00:19:03.045Z,7.38
2019-03-31T00:19:07.338Z,7.39
2019-03-31T00:19:11.624Z,7.39
2019-03-31T00:19:15.912Z,7.39
2019-03-31T00:19:20.209Z,7.39
2019-03-31T00:19:24.510Z,7.39
2019-03-31T00:19:28.809Z,7.39
2019-03-31T00:19:33.092Z,7.39
2019-03-31T00:19:37.288Z,7.39
2019-03-31T00:19:41.576Z,7.4
2019-03-31T00:19:45.882Z,7.39
2019-03-31T00:19:50.181Z,7.39
2019-03-31T00:19:54.470Z,7.39
2019-03-31T00:19:58.848Z,7.39
2019-03-31T00:20:03.277Z,7.39
2019-03-31T00:20:07.576Z,7.39
2019-03-31T00:20:11.880Z,7.4
2019-03-31T00:20:16.183Z,7.39
2019-03-31T00:20:20.378Z,7.4
2019-03-31T00:20:24.679Z,7.4
2019-03-31T00:20:28.878Z,7.4
2019-03-31T00:20:33.191Z,7.4
2019-03-31T00:20:37.478Z,7.4
2019-03-31T00:20:41.764Z,7.39
2019-03-31T00:20:46.058Z,7.39
2019-03-31T00:20:50.418Z,7.4
2019-03-31T00:20:54.706Z,7.4
2019-03-31T00:20:59.002Z,7.4
2019-03-31T00:21:03.345Z,7.4
2019-03-31T00:21:07.711Z,7.4
2019-03-31T00:21:11.998Z,7.4
2019-03-31T00:21:16.289Z,7.4
2019-03-31T00:21:20.583Z,7.4
2019-03-31T00:21:24.882Z,7.39
2019-03-31T00:21:29.176Z,7.4
2019-03-31T00:21:33.465Z,7.4
2019-03-31T00:21:37.801Z,7.4
2019-03-31T00:21:42.086Z,7.4
2019-03-31T00:21:46.276Z,7.41
2019-03-31T00:21:50.569Z,7.4
2019-03-31T00:21:54.821Z,7.41
2019-03-31T00:21:59.106Z,7.41
2019-03-31T00:22:03.496Z,7.41
2019-03-31T00:22:07.784Z,7.41
2019-03-31T00:22:12.075Z,7.41
2019-03-31T00:22:16.269Z,7.41
2019-03-31T00:22:20.559Z,7.41
2019-03-31T00:22:24.765Z,7.42
2019-03-31T00:22:28.959Z,7.41
2019-03-31T00:22:33.257Z,7.42
2019-03-31T00:22:37.646Z,7.42
2019-03-31T00:22:41.860Z,7.42
2019-03-31T00:22:46.064Z,7.42
2019-03-31T00:22:50.263Z,7.42
2019-03-31T00:22:54.586Z,7.43
2019-03-31T00:22:58.886Z,7.42
2019-03-31T00:23:03.240Z,7.42
2019-03-31T00:23:07.436Z,7.42
2019-03-31T00:23:11.727Z,7.42
2019-03-31T00:23:16.017Z,7.43
2019-03-31T00:23:20.316Z,7.43
2019-03-31T00:23:24.532Z,7.42
2019-03-31T00:23:28.832Z,7.43
2019-03-31T00:23:33.035Z,7.43
2019-03-31T00:23:37.329Z,7.43
2019-03-31T00:23:41.624Z,7.44
2019-03-31T00:23:45.906Z,7.43
2019-03-31T00:23:50.195Z,7.44
2019-03-31T00:23:54.488Z,7.43
2019-03-31T00:23:58.708Z,7.44
2019-03-31T00:24:02.900Z,7.44
2019-03-31T00:24:07.259Z,7.44
2019-03-31T00:24:11.562Z,7.45
2019-03-31T00:24:15.857Z,7.44
2019-03-31T00:24:20.149Z,7.45
2019-03-31T00:24:24.446Z,7.46
2019-03-31T00:24:28.748Z,7.44
2019-03-31T00:24:33.040Z,7.46
2019-03-31T00:24:37.225Z,7.45
2019-03-31T00:24:41.459Z,7.46
2019-03-31T00:24:45.752Z,7.45
2019-03-31T00:24:53.250Z,7.46
2019-03-31T00:24:57.880Z,7.45
2019-03-31T00:25:02.405Z,7.46
2019-03-31T00:25:06.721Z,7.46
2019-03-31T00:25:11.074Z,7.46
2019-03-31T00:25:15.388Z,7.46
2019-03-31T00:25:19.682Z,7.46
2019-03-31T00:25:23.972Z,7.46
2019-03-31T00:25:28.266Z,7.46
2019-03-31T00:25:32.556Z,7.47
2019-03-31T00:25:36.795Z,7.48
2019-03-31T00:25:41.091Z,7.47
2019-03-31T00:25:45.366Z,7.47
2019-03-31T00:25:49.671Z,7.47
2019-03-31T00:25:53.955Z,7.47
2019-03-31T00:25:58.162Z,7.47
2019-03-31T00:26:02.551Z,7.47
2019-03-31T00:26:06.908Z,7.47
2019-03-31T00:26:11.104Z,7.47
2019-03-31T00:26:15.406Z,7.48
2019-03-31T00:26:19.600Z,7.48
2019-03-31T00:26:23.898Z,7.48
2019-03-31T00:26:28.091Z,7.47
2019-03-31T00:26:32.393Z,7.48
2019-03-31T00:26:36.689Z,7.48
2019-03-31T00:26:40.987Z,7.48
2019-03-31T00:26:45.283Z,7.48
2019-03-31T00:26:49.487Z,7.48
2019-03-31T00:26:53.833Z,7.47
2019-03-31T00:26:58.132Z,7.47
2019-03-31T00:27:02.431Z,7.48
2019-03-31T00:27:06.689Z,7.48
2019-03-31T00:27:10.989Z,7.48
2019-03-31T00:27:15.282Z,7.48
2019-03-31T00:27:19.491Z,7.48
2019-03-31T00:27:23.679Z,7.49
2019-03-31T00:27:27.968Z,7.49
2019-03-31T00:27:32.334Z,7.49
2019-03-31T00:27:36.619Z,7.5
2019-03-31T00:27:40.812Z,7.49
2019-03-31T00:27:45.011Z,7.5
2019-03-31T00:27:49.303Z,7.49
2019-03-31T00:27:53.591Z,7.49
2019-03-31T00:27:57.878Z,7.5
2019-03-31T00:28:02.318Z,7.49
2019-03-31T00:28:06.668Z,7.49
2019-03-31T00:28:11.026Z,7.5
2019-03-31T00:28:15.313Z,7.49
2019-03-31T00:28:19.615Z,7.5
2019-03-31T00:28:23.873Z,7.5
2019-03-31T00:28:28.070Z,7.51
2019-03-31T00:28:32.375Z,7.51
2019-03-31T00:28:36.671Z,7.51
2019-03-31T00:28:41.034Z,7.51
2019-03-31T00:28:45.333Z,7.51
2019-03-31T00:28:49.647Z,7.51
2019-03-31T00:28:53.945Z,7.51
2019-03-31T00:28:58.242Z,7.51
2019-03-31T00:29:02.429Z,7.52
2019-03-31T00:29:06.730Z,7.51
2019-03-31T00:29:11.026Z,7.52
2019-03-31T00:29:15.229Z,7.51
2019-03-31T00:29:19.535Z,7.52
2019-03-31T00:29:23.836Z,7.52
2019-03-31T00:29:28.040Z,7.52
2019-03-31T00:29:32.333Z,7.51
2019-03-31T00:29:36.621Z,7.52
2019-03-31T00:29:40.918Z,7.52
2019-03-31T00:29:45.118Z,7.52
2019-03-31T00:29:49.311Z,7.52
2019-03-31T00:29:53.602Z,7.52
2019-03-31T00:29:57.893Z,7.52
2019-03-31T00:30:02.091Z,7.52
2019-03-31T00:30:06.429Z,7.52
2019-03-31T00:30:10.621Z,7.52
2019-03-31T00:30:14.918Z,7.52
2019-03-31T00:30:19.317Z,7.52
2019-03-31T00:30:23.515Z,7.53
2019-03-31T00:30:27.702Z,7.53
2019-03-31T00:30:31.898Z,7.53
2019-03-31T00:30:36.194Z,7.52
2019-03-31T00:30:40.484Z,7.53
2019-03-31T00:30:44.771Z,7.52
2019-03-31T00:30:49.064Z,7.52
2019-03-31T00:30:53.393Z,7.53
2019-03-31T00:30:57.679Z,7.52
2019-03-31T00:31:01.966Z,7.52
2019-03-31T00:31:06.264Z,7.52
2019-03-31T00:31:25.068Z,7.53
2019-03-31T00:31:29.374Z,7.53
2019-03-31T00:31:33.673Z,7.52
2019-03-31T00:31:37.959Z,7.53
2019-03-31T00:31:42.155Z,7.52
2019-03-31T00:31:46.353Z,7.52
2019-03-31T00:31:50.654Z,7.53
2019-03-31T00:31:54.946Z,7.52
2019-03-31T00:31:59.142Z,7.52
2019-03-31T00:32:03.488Z,7.53
2019-03-31T00:32:07.698Z,7.52
2019-03-31T00:32:11.987Z,7.53
2019-03-31T00:32:16.185Z,7.53
2019-03-31T00:32:20.384Z,7.53
2019-03-31T00:32:24.675Z,7.53
2019-03-31T00:32:28.973Z,7.53
2019-03-31T00:32:33.280Z,7.53
2019-03-31T00:32:37.585Z,7.52
2019-03-31T00:32:41.878Z,7.53
2019-03-31T00:32:46.166Z,7.53
2019-03-31T00:32:50.354Z,7.53
2019-03-31T00:32:54.550Z,7.53
2019-03-31T00:32:58.838Z,7.53
2019-03-31T00:33:03.131Z,7.54
2019-03-31T00:33:07.423Z,7.53
2019-03-31T00:33:11.722Z,7.54
2019-03-31T00:33:16.017Z,7.53
2019-03-31T00:33:20.211Z,7.53
2019-03-31T00:33:24.542Z,7.53
2019-03-31T00:33:28.748Z,7.54
2019-03-31T00:33:33.039Z,7.52
2019-03-31T00:33:37.333Z,7.54
2019-03-31T00:33:41.525Z,7.54
2019-03-31T00:33:45.819Z,7.53
2019-03-31T00:33:50.110Z,7.53
2019-03-31T00:33:54.209Z,7.54
2019-03-31T00:33:58.498Z,7.53
2019-03-31T00:34:02.786Z,7.53
2019-03-31T00:34:06.991Z,7.54
2019-03-31T00:34:11.278Z,7.54
2019-03-31T00:34:15.576Z,7.54
2019-03-31T00:34:19.770Z,7.54
2019-03-31T00:34:24.063Z,7.54
2019-03-31T00:34:28.356Z,7.54
2019-03-31T00:34:32.644Z,7.54
2019-03-31T00:34:36.947Z,7.54
2019-03-31T00:34:41.249Z,7.54
2019-03-31T00:34:45.539Z,7.54
2019-03-31T00:34:49.862Z,7.54
2019-03-31T00:34:54.150Z,7.54
2019-03-31T00:34:58.359Z,7.55
2019-03-31T00:35:02.702Z,7.54
2019-03-31T00:35:06.918Z,7.54
2019-03-31T00:35:11.127Z,7.54
2019-03-31T00:35:15.420Z,7.55
2019-03-31T00:35:19.634Z,7.54
2019-03-31T00:35:23.986Z,7.54
2019-03-31T00:35:28.278Z,7.53
2019-03-31T00:35:32.585Z,7.54
2019-03-31T00:35:36.872Z,7.54
2019-03-31T00:35:41.170Z,7.54
2019-03-31T00:35:45.468Z,7.54
2019-03-31T00:35:49.756Z,7.54
2019-03-31T00:35:54.049Z,7.54
2019-03-31T00:35:58.352Z,7.54
2019-03-31T00:36:02.645Z,7.54
2019-03-31T00:36:06.950Z,7.54
2019-03-31T00:36:11.251Z,7.54
2019-03-31T00:36:15.543Z,7.53
2019-03-31T00:36:19.837Z,7.53
2019-03-31T00:36:24.033Z,7.54
2019-03-31T00:36:28.323Z,7.53
2019-03-31T00:36:32.526Z,7.54
2019-03-31T00:36:36.853Z,7.53
2019-03-31T00:36:41.145Z,7.53
2019-03-31T00:36:45.441Z,7.53
2019-03-31T00:36:49.731Z,7.54
2019-03-31T00:36:53.922Z,7.53
2019-03-31T00:36:58.219Z,7.53
2019-03-31T00:37:02.517Z,7.53
2019-03-31T00:37:09.965Z,7.52
2019-03-31T00:37:14.164Z,7.52
2019-03-31T00:37:18.462Z,7.53
2019-03-31T00:37:22.773Z,7.52
2019-03-31T00:37:27.067Z,7.53
2019-03-31T00:37:31.466Z,7.52
2019-03-31T00:37:35.763Z,7.53
2019-03-31T00:37:40.053Z,7.53
2019-03-31T00:37:44.347Z,7.52
2019-03-31T00:37:48.633Z,7.53
2019-03-31T00:37:52.822Z,7.53
2019-03-31T00:37:57.122Z,7.52
2019-03-31T00:38:01.413Z,7.53
2019-03-31T00:38:05.706Z,7.53
2019-03-31T00:38:10.010Z,7.53
2019-03-31T00:38:14.304Z,7.53
2019-03-31T00:38:18.500Z,7.52
2019-03-31T00:38:22.693Z,7.53
2019-03-31T00:38:26.892Z,7.53
2019-03-31T00:38:31.179Z,7.52
2019-03-31T00:38:35.475Z,7.52
2019-03-31T00:38:39.784Z,7.52
2019-03-31T00:38:44.073Z,7.53
2019-03-31T00:38:48.359Z,7.53
2019-03-31T00:38:52.659Z,7.52
2019-03-31T00:38:56.952Z,7.53
2019-03-31T00:39:01.145Z,7.53
2019-03-31T00:39:05.441Z,7.53
2019-03-31T00:39:09.736Z,7.52
2019-03-31T00:39:14.032Z,7.52
2019-03-31T00:39:18.328Z,7.52
2019-03-31T00:39:22.619Z,7.53
2019-03-31T00:39:26.916Z,7.52
2019-03-31T00:39:31.202Z,7.52
2019-03-31T00:39:35.522Z,7.53
2019-03-31T00:39:39.769Z,7.52
2019-03-31T00:39:44.076Z,7.54
2019-03-31T00:39:48.381Z,7.53
2019-03-31T00:39:52.667Z,7.52
2019-03-31T00:39:56.956Z,7.53
2019-03-31T00:40:01.336Z,7.53
2019-03-31T00:40:05.722Z,7.52
2019-03-31T00:40:10.021Z,7.53
2019-03-31T00:40:14.338Z,7.53
2019-03-31T00:40:18.703Z,7.52
2019-03-31T00:40:23.005Z,7.53
2019-03-31T00:40:27.305Z,7.52
2019-03-31T00:40:31.597Z,7.52
2019-03-31T00:40:35.887Z,7.53
2019-03-31T00:40:40.193Z,7.53
2019-03-31T00:40:44.508Z,7.53
2019-03-31T00:40:48.837Z,7.53
2019-03-31T00:40:53.127Z,7.53
2019-03-31T00:40:57.434Z,7.53
2019-03-31T00:41:01.631Z,7.54
2019-03-31T00:41:05.929Z,7.53
2019-03-31T00:41:10.217Z,7.53
2019-03-31T00:41:14.509Z,7.53
2019-03-31T00:41:18.809Z,7.53
2019-03-31T00:41:23.193Z,7.53
2019-03-31T00:41:27.489Z,7.54
2019-03-31T00:41:31.788Z,7.53
2019-03-31T00:41:36.079Z,7.54
2019-03-31T00:41:40.376Z,7.53
2019-03-31T00:41:44.680Z,7.53
2019-03-31T00:41:49.009Z,7.54
2019-03-31T00:41:53.204Z,7.54
2019-03-31T00:41:57.504Z,7.54
2019-03-31T00:42:01.803Z,7.54
2019-03-31T00:42:06.019Z,7.54
2019-03-31T00:42:10.321Z,7.54
2019-03-31T00:42:14.629Z,7.53
2019-03-31T00:42:18.827Z,7.55
2019-03-31T00:42:23.179Z,7.55
2019-03-31T00:42:27.471Z,7.54
2019-03-31T00:42:31.756Z,7.54
2019-03-31T00:42:35.958Z,7.55
2019-03-31T00:42:40.269Z,7.55
2019-03-31T00:42:44.562Z,7.55
2019-03-31T00:42:48.858Z,7.55
2019-03-31T00:42:53.177Z,7.55
2019-03-31T00:42:57.461Z,7.55
2019-03-31T00:43:01.896Z,7.54
2019-03-31T00:43:06.188Z,7.55
2019-03-31T00:43:10.483Z,7.55
2019-03-31T00:43:14.786Z,7.55
2019-03-31T00:43:19.084Z,7.55
2019-03-31T00:43:23.380Z,7.55
2019-03-31T00:43:27.672Z,7.56
2019-03-31T00:43:31.966Z,7.56
2019-03-31T00:43:36.265Z,7.55
2019-03-31T00:43:40.556Z,7.56
2019-03-31T00:43:44.849Z,7.55
2019-03-31T00:43:49.221Z,7.56
2019-03-31T00:43:53.532Z,7.56
2019-03-31T00:43:57.718Z,7.55
2019-03-31T00:44:02.022Z,7.56
2019-03-31T00:44:06.327Z,7.56
2019-03-31T00:44:10.618Z,7.56
2019-03-31T00:44:14.927Z,7.56
2019-03-31T00:44:19.225Z,7.58
2019-03-31T00:44:23.516Z,7.57
2019-03-31T00:44:27.812Z,7.56
2019-03-31T00:44:32.071Z,7.56
2019-03-31T00:44:36.396Z,7.56
2019-03-31T00:44:40.698Z,7.58
2019-03-31T00:44:45.003Z,7.57
2019-03-31T00:44:49.294Z,7.58
2019-03-31T00:44:53.594Z,7.57
2019-03-31T00:44:57.902Z,7.58
2019-03-31T00:45:02.204Z,7.58
2019-03-31T00:45:06.514Z,7.58
2019-03-31T00:45:10.712Z,7.58
2019-03-31T00:45:15.022Z,7.58
2019-03-31T00:45:19.311Z,7.58
2019-03-31T00:45:23.606Z,7.58
2019-03-31T00:45:27.895Z,7.58
2019-03-31T00:45:32.186Z,7.59
2019-03-31T00:45:36.486Z,7.59
2019-03-31T00:45:40.780Z,7.58
2019-03-31T00:45:45.074Z,7.59
2019-03-31T00:45:49.375Z,7.58
2019-03-31T00:45:53.661Z,7.6
2019-03-31T00:45:57.950Z,7.59
2019-03-31T00:46:02.247Z,7.59
2019-03-31T00:46:06.440Z,7.6
2019-03-31T00:46:10.746Z,7.6
2019-03-31T00:46:14.947Z,7.59
2019-03-31T00:46:19.240Z,7.6
2019-03-31T00:46:23.540Z,7.6
2019-03-31T00:46:27.729Z,7.6
2019-03-31T00:46:31.928Z,7.59
2019-03-31T00:46:36.218Z,7.6
2019-03-31T00:46:40.409Z,7.6
2019-03-31T00:46:44.707Z,7.61
2019-03-31T00:46:48.994Z,7.61
2019-03-31T00:46:53.293Z,7.61
2019-03-31T00:46:57.758Z,7.61
2019-03-31T00:47:05.152Z,7.61
2019-03-31T00:47:09.349Z,7.61
2019-03-31T00:47:13.654Z,7.61
2019-03-31T00:47:17.855Z,7.61
2019-03-31T00:47:22.146Z,7.61
2019-03-31T00:47:26.441Z,7.61
2019-03-31T00:47:30.734Z,7.61
2019-03-31T00:47:34.931Z,7.62
2019-03-31T00:47:39.229Z,7.62
2019-03-31T00:47:43.519Z,7.62
2019-03-31T00:47:47.811Z,7.62
2019-03-31T00:47:52.180Z,7.62
2019-03-31T00:47:56.479Z,7.61
2019-03-31T00:48:00.768Z,7.62
2019-03-31T00:48:05.075Z,7.61
2019-03-31T00:48:09.415Z,7.61
2019-03-31T00:48:13.716Z,7.61
2019-03-31T00:48:17.912Z,7.62
2019-03-31T00:48:22.201Z,7.62
2019-03-31T00:48:26.418Z,7.62
2019-03-31T00:48:30.711Z,7.62
2019-03-31T00:48:35.006Z,7.61
2019-03-31T00:48:39.307Z,7.62
2019-03-31T00:48:43.619Z,7.61
2019-03-31T00:48:47.817Z,7.61
2019-03-31T00:48:52.026Z,7.61
2019-03-31T00:48:56.326Z,7.61
2019-03-31T00:49:00.626Z,7.62
2019-03-31T00:49:04.939Z,7.62
2019-03-31T00:49:09.243Z,7.62
2019-03-31T00:49:13.574Z,7.61
2019-03-31T00:49:17.864Z,7.62
2019-03-31T00:49:22.150Z,7.62
2019-03-31T00:49:26.441Z,7.62
2019-03-31T00:49:30.734Z,7.62
2019-03-31T00:49:35.041Z,7.62
2019-03-31T00:49:39.349Z,7.62
2019-03-31T00:49:43.654Z,7.61
2019-03-31T00:49:47.942Z,7.61
2019-03-31T00:49:52.248Z,7.62
2019-03-31T00:49:56.546Z,7.61
2019-03-31T00:50:00.752Z,7.61
2019-03-31T00:50:05.058Z,7.62
2019-03-31T00:50:09.359Z,7.61
2019-03-31T00:50:13.711Z,7.62
2019-03-31T00:50:18.001Z,7.62
2019-03-31T00:50:22.194Z,7.61
2019-03-31T00:50:26.391Z,7.62
2019-03-31T00:50:30.682Z,7.61
2019-03-31T00:50:34.981Z,7.62
2019-03-31T00:50:39.290Z,7.62
2019-03-31T00:50:43.586Z,7.62
2019-03-31T00:50:47.880Z,7.61
2019-03-31T00:50:52.236Z,7.62
2019-03-31T00:50:56.543Z,7.62
2019-03-31T00:51:00.831Z,7.61
2019-03-31T00:51:05.128Z,7.61
2019-03-31T00:51:09.436Z,7.62
2019-03-31T00:51:13.735Z,7.62
2019-03-31T00:51:17.968Z,7.61
2019-03-31T00:51:22.167Z,7.62
2019-03-31T00:51:26.470Z,7.62
2019-03-31T00:51:30.764Z,7.61
2019-03-31T00:51:35.055Z,7.61
2019-03-31T00:51:39.372Z,7.61
2019-03-31T00:51:43.715Z,7.62
2019-03-31T00:51:48.008Z,7.62
2019-03-31T00:51:52.300Z,7.62
2019-03-31T00:51:56.609Z,7.62
2019-03-31T00:52:00.809Z,7.62
2019-03-31T00:52:05.190Z,7.61
2019-03-31T00:52:09.528Z,7.62
2019-03-31T00:52:13.820Z,7.62
2019-03-31T00:52:18.014Z,7.62
2019-03-31T00:52:22.305Z,7.62
2019-03-31T00:52:26.668Z,7.62
2019-03-31T00:52:30.964Z,7.62
2019-03-31T00:52:35.255Z,7.61
2019-03-31T00:52:39.556Z,7.62
2019-03-31T00:52:43.848Z,7.61
2019-03-31T00:52:48.135Z,7.62
2019-03-31T00:52:52.437Z,7.61
2019-03-31T00:52:56.727Z,7.63
2019-03-31T00:53:01.019Z,7.62
2019-03-31T00:53:05.332Z,7.61
2019-03-31T00:53:09.621Z,7.62
2019-03-31T00:53:13.922Z,7.62
2019-03-31T00:53:18.211Z,7.62
2019-03-31T00:53:22.531Z,7.61
2019-03-31T00:53:26.762Z,7.61
2019-03-31T00:53:31.055Z,7.62
2019-03-31T00:53:35.347Z,7.62
2019-03-31T00:53:39.655Z,7.62
2019-03-31T00:53:43.946Z,7.61
2019-03-31T00:53:48.217Z,7.61
2019-03-31T00:53:52.506Z,7.61
2019-03-31T00:53:56.815Z,7.61
2019-03-31T00:54:01.115Z,7.61
2019-03-31T00:54:05.405Z,7.6
2019-03-31T00:54:09.708Z,7.61
2019-03-31T00:54:14.007Z,7.61
2019-03-31T00:54:18.311Z,7.62
2019-03-31T00:54:22.616Z,7.62
2019-03-31T00:54:29.892Z,7.61
2019-03-31T00:54:34.009Z,7.62
2019-03-31T00:54:38.318Z,7.61
2019-03-31T00:54:42.605Z,7.61
2019-03-31T00:54:46.906Z,7.61
2019-03-31T00:54:51.199Z,7.62
2019-03-31T00:54:55.392Z,7.61
2019-03-31T00:54:59.582Z,7.61
2019-03-31T00:55:04.071Z,7.62
2019-03-31T00:55:08.369Z,7.62
2019-03-31T00:55:12.671Z,7.61
2019-03-31T00:55:16.865Z,7.6
2019-03-31T00:55:21.166Z,7.61
2019-03-31T00:55:25.470Z,7.61
2019-03-31T00:55:29.706Z,7.61
2019-03-31T00:55:33.971Z,7.61
2019-03-31T00:55:38.270Z,7.61
2019-03-31T00:55:42.562Z,7.6
2019-03-31T00:55:46.868Z,7.59
2019-03-31T00:55:51.174Z,7.6
2019-03-31T00:55:55.466Z,7.58
2019-03-31T00:55:59.675Z,7.59
2019-03-31T00:56:04.132Z,7.59
2019-03-31T00:56:08.458Z,7.58
2019-03-31T00:56:12.652Z,7.57
2019-03-31T00:56:16.958Z,7.57
2019-03-31T00:56:21.249Z,7.57
2019-03-31T00:56:25.541Z,7.56
2019-03-31T00:56:29.880Z,7.57
2019-03-31T00:56:34.166Z,7.55
2019-03-31T00:56:38.458Z,7.55
2019-03-31T00:56:42.748Z,7.55
2019-03-31T00:56:47.050Z,7.55
2019-03-31T00:56:51.343Z,7.54
2019-03-31T00:56:55.645Z,7.54
2019-03-31T00:56:59.837Z,7.53
2019-03-31T00:57:04.151Z,7.53
2019-03-31T00:57:08.443Z,7.52
2019-03-31T00:57:12.735Z,7.52
2019-03-31T00:57:16.855Z,7.53
2019-03-31T00:57:21.160Z,7.52
2019-03-31T00:57:25.449Z,7.52
2019-03-31T00:57:29.743Z,7.51
2019-03-31T00:57:34.054Z,7.51
2019-03-31T00:57:38.346Z,7.51
2019-03-31T00:57:42.640Z,7.5
2019-03-31T00:57:46.736Z,7.5
2019-03-31T00:57:51.032Z,7.5
2019-03-31T00:57:55.324Z,7.49
2019-03-31T00:57:59.616Z,7.49
2019-03-31T00:58:03.921Z,7.49
2019-03-31T00:58:08.213Z,7.49
2019-03-31T00:58:12.507Z,7.48
2019-03-31T00:58:16.836Z,7.49
2019-03-31T00:58:21.125Z,7.48
2019-03-31T00:58:25.414Z,7.48